Time;durP1;ratioP1;P1;durP2;ratioP2;P2;SDS_P1;SDS_P2;PMS_P1;PMS_P2;Temp;Humidity;BMP_temperature;BMP_pressure;BME280_temperature;BME280_humidity;BME280_pressure;Samples;Min_cycle;Max_cycle;Signal;HPM_P1;HPM_P2
2021/06/14 00:02:10;;;;;;;11.82;5.97;;;18.10;70.00;;;;;;4997832;28;20737;-79
2021/06/14 00:04:54;;;;;;;7.77;4.53;;;18.00;70.30;;;;;;5014060;28;20081;-80
2021/06/14 00:07:38;;;;;;;10.80;5.10;;;18.00;70.60;;;;;;5014545;28;20072;-79
2021/06/14 00:10:26;;;;;;;11.45;5.05;;;18.00;71.20;;;;;;5015032;28;20111;-79
2021/06/14 00:13:11;;;;;;;9.43;4.80;;;18.00;71.00;;;;;;5004872;28;20081;-78
2021/06/14 00:15:55;;;;;;;9.07;4.68;;;17.90;70.90;;;;;;4996372;28;20069;-79
2021/06/14 00:18:39;;;;;;;12.27;4.80;;;17.90;70.40;;;;;;5011749;28;20080;-79
2021/06/14 00:21:24;;;;;;;12.97;4.87;;;17.90;70.20;;;;;;5016072;28;20040;-79
2021/06/14 00:24:09;;;;;;;6.38;4.30;;;17.80;70.60;;;;;;5018514;28;20037;-79
2021/06/14 00:26:53;;;;;;;9.65;5.13;;;17.80;71.00;;;;;;5030644;28;20033;-79
2021/06/14 00:29:37;;;;;;;11.13;5.50;;;17.80;71.10;;;;;;4998631;28;20584;-79
2021/06/14 00:32:21;;;;;;;6.43;4.05;;;17.80;71.30;;;;;;5011904;28;20334;-79
2021/06/14 00:35:06;;;;;;;10.80;4.95;;;17.80;71.50;;;;;;5014958;28;20113;-78
2021/06/14 00:37:50;;;;;;;10.85;5.50;;;17.80;71.80;;;;;;5014309;28;20092;-80
2021/06/14 00:40:35;;;;;;;9.13;4.95;;;17.80;72.10;;;;;;5015498;28;20029;-80
2021/06/14 00:43:20;;;;;;;;;;;17.70;72.20;;;;;;5033034;28;20109;-79
2021/06/14 00:46:05;;;;;;;9.35;5.00;;;17.70;71.30;;;;;;5030795;28;19916;-79
2021/06/14 00:48:49;;;;;;;;;;;17.70;72.40;;;;;;5027793;28;20045;-79
2021/06/14 00:51:33;;;;;;;9.05;5.03;;;17.60;71.50;;;;;;5032011;28;19940;-79
2021/06/14 00:54:17;;;;;;;13.90;5.47;;;17.60;72.70;;;;;;5031321;28;20509;-79
2021/06/14 00:57:02;;;;;;;10.93;5.73;;;17.50;73.10;;;;;;5029675;28;20017;-77
2021/06/14 00:59:46;;;;;;;11.18;5.50;;;17.50;73.60;;;;;;5032639;28;20072;-78
2021/06/14 01:02:30;;;;;;;9.68;5.68;;;17.40;73.80;;;;;;5009239;28;20453;-78
2021/06/14 01:05:15;;;;;;;12.23;5.32;;;17.50;74.10;;;;;;4982942;28;20422;-78
2021/06/14 01:07:59;;;;;;;12.45;5.43;;;17.40;74.20;;;;;;4984705;28;20037;-77
2021/06/14 01:10:44;;;;;;;9.10;5.55;;;17.40;74.40;;;;;;4987404;28;20066;-79
2021/06/14 01:13:31;;;;;;;12.13;5.72;;;17.40;74.80;;;;;;4984797;28;20098;-79
2021/06/14 01:16:50;;;;;;;10.13;5.03;;;17.30;75.30;;;;;;4966692;29;20042;-78
2021/06/14 01:20:12;;;;;;;12.35;5.68;;;17.30;75.40;;;;;;4966360;29;20045;-79
2021/06/14 01:23:29;;;;;;;12.68;6.22;;;17.30;75.50;;;;;;4966193;28;20582;-79
2021/06/14 01:26:17;;;;;;;8.93;5.15;;;17.30;75.70;;;;;;4955968;29;20046;-79
2021/06/14 01:29:02;;;;;;;9.48;6.00;;;17.20;76.10;;;;;;4972222;28;20498;-79
2021/06/14 01:31:46;;;;;;;13.20;6.50;;;17.20;76.50;;;;;;4972053;28;20442;-78
2021/06/14 01:34:35;;;;;;;10.65;5.47;;;17.10;76.80;;;;;;4973276;28;20093;-78
2021/06/14 01:37:20;;;;;;;11.25;6.28;;;17.10;77.00;;;;;;4973251;28;20032;-78
2021/06/14 01:40:05;;;;;;;13.35;6.35;;;17.20;77.70;;;;;;4973858;28;20089;-80
2021/06/14 01:42:53;;;;;;;13.38;6.15;;;17.10;77.40;;;;;;4961878;28;20490;-78
2021/06/14 01:45:41;;;;;;;11.60;6.32;;;17.10;77.70;;;;;;4973015;28;20049;-79
2021/06/14 01:48:26;;;;;;;12.18;6.00;;;17.10;78.00;;;;;;4956943;28;20038;-79
2021/06/14 01:51:14;;;;;;;11.27;6.05;;;17.10;78.10;;;;;;4955730;29;20415;-79
2021/06/14 01:54:08;;;;;;;10.40;6.53;;;17.00;78.30;;;;;;4958656;28;20050;-77
2021/06/14 01:56:53;;;;;;;12.70;6.40;;;17.10;78.50;;;;;;4974892;28;20034;-77
2021/06/14 01:59:39;;;;;;;10.10;6.10;;;17.00;78.60;;;;;;4972544;28;20080;-78
2021/06/14 02:02:23;;;;;;;11.48;6.47;;;17.00;78.80;;;;;;4974994;28;20126;-78
2021/06/14 02:05:13;;;;;;;13.88;6.60;;;17.00;79.00;;;;;;5123439;27;20518;-78
2021/06/14 02:07:59;;;;;;;10.23;6.07;;;17.00;79.20;;;;;;5109806;28;20035;-78
2021/06/14 02:10:43;;;;;;;11.38;6.10;;;17.00;79.40;;;;;;5106176;28;20624;-76
2021/06/14 02:13:28;;;;;;;11.05;6.60;;;17.10;79.70;;;;;;5109138;28;20078;-77
2021/06/14 02:16:14;;;;;;;11.13;6.38;;;17.00;79.70;;;;;;5070847;28;20056;-77
2021/06/14 02:18:59;;;;;;;13.85;6.25;;;17.00;79.80;;;;;;5076487;28;20023;-77
2021/06/14 02:21:45;;;;;;;11.88;6.50;;;17.00;80.00;;;;;;5112202;28;20043;-76
2021/06/14 02:24:29;;;;;;;9.80;5.78;;;17.00;80.20;;;;;;5112266;28;20127;-77
2021/06/14 02:27:15;;;;;;;9.43;5.55;;;17.00;80.40;;;;;;5110086;28;20035;-77
2021/06/14 02:29:59;;;;;;;12.02;5.93;;;17.00;80.70;;;;;;5095144;28;20035;-77
2021/06/14 02:32:43;;;;;;;9.48;5.88;;;17.00;80.70;;;;;;5073204;28;20039;-77
2021/06/14 02:35:28;;;;;;;13.50;5.88;;;17.00;80.70;;;;;;5102783;28;20031;-77
2021/06/14 02:38:12;;;;;;;10.37;5.63;;;17.00;80.90;;;;;;5105787;28;20046;-78
2021/06/14 02:40:57;;;;;;;10.43;5.85;;;17.00;81.00;;;;;;5105674;28;20669;-78
2021/06/14 02:43:43;;;;;;;12.35;7.15;;;17.00;81.00;;;;;;5105621;28;20035;-78
2021/06/14 02:46:27;;;;;;;9.30;5.20;;;17.00;81.20;;;;;;5109198;28;20039;-79
2021/06/14 02:49:13;;;;;;;10.90;5.80;;;16.90;81.20;;;;;;5105563;28;20050;-78
2021/06/14 02:51:58;;;;;;;9.43;5.88;;;16.90;81.40;;;;;;5113494;28;20039;-78
2021/06/14 02:54:57;;;;;;;11.07;5.85;;;16.90;81.50;;;;;;5108786;28;20111;-78
2021/06/14 02:57:48;;;;;;;9.45;5.20;;;16.90;81.70;;;;;;5107929;28;20077;-78
2021/06/14 03:00:32;;;;;;;11.45;5.75;;;16.80;81.90;;;;;;5106327;28;20605;-78
2021/06/14 03:03:17;;;;;;;9.20;5.45;;;16.90;81.90;;;;;;5106809;28;20307;-79
2021/06/14 03:06:04;;;;;;;11.60;5.53;;;16.80;81.90;;;;;;5108164;28;20046;-79
2021/06/14 03:08:49;;;;;;;11.85;6.03;;;16.90;82.10;;;;;;5089059;28;20500;-78
2021/06/14 03:11:35;;;;;;;8.07;5.38;;;16.90;82.20;;;;;;5088154;28;20036;-78
2021/06/14 03:14:21;;;;;;;8.60;4.95;;;16.90;82.30;;;;;;5092608;28;20035;-75
2021/06/14 03:17:06;;;;;;;10.63;6.50;;;16.90;82.50;;;;;;5072131;28;20455;-74
2021/06/14 03:19:54;;;;;;;10.98;5.80;;;16.90;82.40;;;;;;5063988;28;20397;-73
2021/06/14 03:22:39;;;;;;;9.05;5.13;;;16.90;82.60;;;;;;5074032;28;20031;-74
2021/06/14 03:25:24;;;;;;;8.52;5.68;;;17.00;82.80;;;;;;5087367;28;20051;-78
2021/06/14 03:28:09;;;;;;;8.20;5.28;;;17.00;82.70;;;;;;5078110;28;20089;-78
2021/06/14 03:30:54;;;;;;;8.30;5.25;;;17.00;82.80;;;;;;5060354;28;20188;-77
2021/06/14 03:33:40;;;;;;;9.10;4.95;;;17.00;83.00;;;;;;5073025;28;20584;-78
2021/06/14 03:36:29;;;;;;;9.90;5.43;;;17.00;83.00;;;;;;5068151;28;20078;-78
2021/06/14 03:39:17;;;;;;;11.30;5.57;;;17.00;83.10;;;;;;5067971;28;20036;-77
2021/06/14 03:42:02;;;;;;;12.65;5.35;;;17.00;83.30;;;;;;5054401;28;20098;-77
2021/06/14 03:44:46;;;;;;;11.00;5.50;;;17.10;83.30;;;;;;5063510;28;20097;-78
2021/06/14 03:47:30;;;;;;;7.07;4.70;;;17.10;83.10;;;;;;5068380;28;20115;-77
2021/06/14 03:50:14;;;;;;;11.02;5.10;;;17.20;83.10;;;;;;5073412;28;20396;-78
2021/06/14 03:52:58;;;;;;;11.07;5.57;;;17.20;83.10;;;;;;5073028;28;20035;-78
2021/06/14 03:55:42;;;;;;;11.50;5.50;;;17.20;83.10;;;;;;5090359;28;20043;-78
2021/06/14 03:58:26;;;;;;;6.93;4.93;;;17.30;83.20;;;;;;5094234;28;20047;-76
2021/06/14 04:01:10;;;;;;;11.82;5.20;;;17.30;83.00;;;;;;5052787;28;20071;-77
2021/06/14 04:04:24;;;;;;;9.43;5.45;;;17.40;83.00;;;;;;5055973;28;20153;-76
2021/06/14 04:07:09;;;;;;;11.38;5.88;;;17.40;83.10;;;;;;5072547;28;20035;-78
2021/06/14 04:09:56;;;;;;;13.75;6.30;;;17.40;83.10;;;;;;5071479;28;20039;-77
2021/06/14 04:12:40;;;;;;;10.57;5.38;;;17.50;83.00;;;;;;5073394;28;20078;-77
2021/06/14 04:15:24;;;;;;;8.98;4.85;;;17.50;83.00;;;;;;5086730;28;20051;-77
2021/06/14 04:18:08;;;;;;;10.73;5.22;;;17.50;83.00;;;;;;5092995;28;20082;-77
2021/06/14 04:20:52;;;;;;;9.13;5.40;;;17.60;82.90;;;;;;5089205;28;20032;-77
2021/06/14 04:23:37;;;;;;;11.48;5.65;;;17.60;82.90;;;;;;5090744;28;20308;-78
2021/06/14 04:26:21;;;;;;;8.77;4.97;;;17.70;82.70;;;;;;5051570;28;20480;-78
2021/06/14 04:29:05;;;;;;;10.57;4.68;;;17.70;82.90;;;;;;5058003;28;20051;-79
2021/06/14 04:31:49;;;;;;;13.73;5.57;;;17.70;82.60;;;;;;5073587;28;20389;-78
2021/06/14 04:34:33;;;;;;;12.75;5.63;;;17.80;82.40;;;;;;5076786;28;20320;-78
2021/06/14 04:37:17;;;;;;;8.20;5.25;;;17.80;82.30;;;;;;5073555;28;20047;-78
2021/06/14 04:40:02;;;;;;;13.00;6.15;;;17.80;81.70;;;;;;5079294;28;20043;-78
2021/06/14 04:42:46;;;;;;;14.85;6.20;;;17.90;81.20;;;;;;5094042;28;20035;-78
2021/06/14 04:45:31;;;;;;;13.37;5.43;;;17.90;80.60;;;;;;5090166;28;20043;-77
2021/06/14 04:48:15;;;;;;;15.15;5.60;;;18.00;80.50;;;;;;5093207;28;20076;-78
2021/06/14 04:50:59;;;;;;;12.13;5.67;;;18.00;80.20;;;;;;5071930;28;20047;-77
2021/06/14 04:53:44;;;;;;;11.65;5.50;;;18.00;79.90;;;;;;5069886;28;20051;-78
2021/06/14 04:56:29;;;;;;;9.40;5.55;;;18.00;79.90;;;;;;5086983;28;20039;-78
2021/06/14 04:59:12;;;;;;;9.70;5.17;;;18.00;79.50;;;;;;5071205;28;20335;-77
2021/06/14 05:01:57;;;;;;;9.30;4.90;;;18.10;79.40;;;;;;5072061;28;20036;-76
2021/06/14 05:04:41;;;;;;;12.10;5.07;;;18.10;79.00;;;;;;5070195;28;20051;-76
2021/06/14 05:07:25;;;;;;;9.67;5.07;;;18.10;78.90;;;;;;5061760;28;20085;-77
2021/06/14 05:10:10;;;;;;;10.02;4.93;;;18.20;78.70;;;;;;5064568;28;20052;-78
2021/06/14 05:12:54;;;;;;;15.43;6.13;;;18.20;78.60;;;;;;5072228;28;20090;-79
2021/06/14 05:15:38;;;;;;;11.40;4.73;;;18.30;77.80;;;;;;5087288;28;20507;-76
2021/06/14 05:18:22;;;;;;;11.40;5.68;;;18.30;77.90;;;;;;5093777;28;20369;-72
2021/06/14 05:21:06;;;;;;;10.95;4.97;;;18.40;77.60;;;;;;5085890;28;20086;-77
2021/06/14 05:23:51;;;;;;;13.93;5.47;;;18.40;77.40;;;;;;5072764;28;20059;-73
2021/06/14 05:26:35;;;;;;;9.90;4.90;;;18.50;76.90;;;;;;5092389;28;20032;-75
2021/06/14 05:29:19;;;;;;;8.50;4.80;;;18.50;77.00;;;;;;5088543;28;20119;-76
2021/06/14 05:32:04;;;;;;;14.10;5.25;;;18.50;77.00;;;;;;5091838;28;20081;-74
2021/06/14 05:34:48;;;;;;;10.55;4.95;;;18.60;76.60;;;;;;5084637;28;20032;-76
2021/06/14 05:37:32;;;;;;;9.77;4.43;;;18.60;76.60;;;;;;5073100;28;20113;-78
2021/06/14 05:40:17;;;;;;;10.47;4.70;;;18.70;76.50;;;;;;5086225;28;20046;-78
2021/06/14 05:43:01;;;;;;;13.52;5.63;;;18.70;76.00;;;;;;5078922;28;20085;-78
2021/06/14 05:45:45;;;;;;;10.13;4.30;;;18.80;75.90;;;;;;5083557;28;20549;-77
2021/06/14 05:48:29;;;;;;;9.63;4.72;;;18.80;75.90;;;;;;5064008;28;20409;-77
2021/06/14 05:51:13;;;;;;;13.25;5.85;;;18.90;75.90;;;;;;5052035;28;20035;-77
2021/06/14 05:53:58;;;;;;;13.48;4.82;;;18.90;75.60;;;;;;5054126;28;20044;-77
2021/06/14 05:56:41;;;;;;;11.77;4.70;;;18.90;75.30;;;;;;5071775;28;20117;-79
2021/06/14 05:59:25;;;;;;;8.10;4.35;;;19.00;75.00;;;;;;5076877;28;20508;-79
2021/06/14 06:02:09;;;;;;;12.50;5.17;;;19.00;75.00;;;;;;5070284;28;20079;-77
2021/06/14 06:04:35;;;;;;;14.52;5.10;;;19.10;74.80;;;;;;5059325;28;20112;-77
2021/06/14 06:07:01;;;;;;;11.40;4.63;;;19.10;74.60;;;;;;5072274;28;20025;-77
2021/06/14 06:09:27;;;;;;;10.55;5.22;;;19.10;74.20;;;;;;5076952;28;20324;-78
2021/06/14 06:11:52;;;;;;;14.38;5.75;;;19.20;74.00;;;;;;5076728;28;20418;-77
2021/06/14 06:14:18;;;;;;;9.20;4.57;;;19.30;77.00;;;;;;5075817;28;20035;-76
2021/06/14 06:16:43;;;;;;;10.38;4.65;;;19.30;76.10;;;;;;5091749;28;20031;-77
2021/06/14 06:19:09;;;;;;;7.65;4.22;;;19.40;75.50;;;;;;5084346;28;20040;-76
2021/06/14 06:21:35;;;;;;;11.77;5.63;;;19.40;74.80;;;;;;5071398;28;20491;-76
2021/06/14 06:24:01;;;;;;;10.80;5.03;;;19.50;73.50;;;;;;5069658;28;20122;-76
2021/06/14 06:26:26;;;;;;;10.38;4.65;;;19.50;73.20;;;;;;5070122;28;20480;-76
2021/06/14 06:28:52;;;;;;;12.45;4.57;;;19.60;73.20;;;;;;5070813;28;20029;-77
2021/06/14 06:31:18;;;;;;;10.65;4.70;;;19.60;73.40;;;;;;5071033;28;20518;-76
2021/06/14 06:33:43;;;;;;;9.00;4.40;;;19.60;72.80;;;;;;5070313;28;20040;-77
2021/06/14 06:36:10;;;;;;;12.57;4.95;;;19.60;73.00;;;;;;5084079;28;20077;-76
2021/06/14 06:38:36;;;;;;;8.80;4.25;;;19.80;72.70;;;;;;5075733;28;20101;-75
2021/06/14 06:41:03;;;;;;;10.75;4.40;;;19.80;72.40;;;;;;5091627;28;20020;-77
2021/06/14 06:43:28;;;;;;;8.57;4.35;;;19.80;72.70;;;;;;5088933;28;20030;-76
2021/06/14 06:46:12;;;;;;;8.70;4.40;;;19.90;71.90;;;;;;5051212;28;20047;-76
2021/06/14 06:48:56;;;;;;;9.43;4.80;;;19.90;71.70;;;;;;5050849;28;20036;-75
2021/06/14 06:51:41;;;;;;;10.87;4.40;;;19.90;71.40;;;;;;5054261;28;20764;-76
2021/06/14 06:54:25;;;;;;;8.27;3.90;;;20.00;71.50;;;;;;5061083;28;20590;-75
2021/06/14 06:57:13;;;;;;;8.02;4.82;;;20.00;71.60;;;;;;5074861;28;20119;-76
2021/06/14 06:59:57;;;;;;;8.50;4.05;;;20.10;71.20;;;;;;5084080;28;20035;-75
2021/06/14 07:02:41;;;;;;;9.60;4.50;;;20.10;70.80;;;;;;5088931;28;20116;-75
2021/06/14 07:05:26;;;;;;;11.18;4.45;;;20.10;71.00;;;;;;5075057;28;20054;-75
2021/06/14 07:08:10;;;;;;;11.05;4.75;;;20.10;70.90;;;;;;5066016;28;20149;-75
2021/06/14 07:10:55;;;;;;;10.50;4.70;;;20.20;70.90;;;;;;5092315;28;20043;-75
2021/06/14 07:13:38;;;;;;;18.40;4.88;;;20.30;70.50;;;;;;5091991;28;20469;-75
2021/06/14 07:16:23;;;;;;;10.43;4.13;;;20.40;70.10;;;;;;5094655;28;20042;-75
2021/06/14 07:19:07;;;;;;;9.60;4.43;;;20.40;70.30;;;;;;5090855;28;20301;-75
2021/06/14 07:21:51;;;;;;;13.18;4.95;;;20.50;69.90;;;;;;5094626;28;20092;-75
2021/06/14 07:24:35;;;;;;;12.37;4.80;;;20.50;69.70;;;;;;5083010;28;20101;-74
2021/06/14 07:27:19;;;;;;;8.60;4.18;;;20.60;69.20;;;;;;5053910;28;20422;-74
2021/06/14 07:30:08;;;;;;;10.90;4.60;;;20.70;69.40;;;;;;5065962;28;20051;-74
2021/06/14 07:32:52;;;;;;;10.30;4.85;;;20.60;68.50;;;;;;5072251;28;20063;-75
2021/06/14 07:35:36;;;;;;;11.55;4.20;;;20.70;68.90;;;;;;5067857;28;20078;-75
2021/06/14 07:38:21;;;;;;;7.35;3.85;;;20.80;68.50;;;;;;5087940;28;20448;-77
2021/06/14 07:41:06;;;;;;;10.23;4.75;;;20.80;68.10;;;;;;5054762;28;20040;-82
2021/06/14 07:43:51;;;;;;;8.82;3.80;;;20.90;68.10;;;;;;5066318;28;20047;-76
2021/06/14 07:46:24;;;;;;;7.03;4.00;;;21.00;67.90;;;;;;5068775;28;20021;-74
2021/06/14 07:48:50;;;;;;;11.07;4.53;;;21.00;67.30;;;;;;5073914;28;20068;-75
2021/06/14 07:51:15;;;;;;;8.55;3.65;;;21.10;67.00;;;;;;5080234;28;20402;-74
2021/06/14 07:53:41;;;;;;;8.88;4.13;;;21.20;66.70;;;;;;5072195;28;20021;-72
2021/06/14 07:56:09;;;;;;;11.68;4.45;;;21.20;66.50;;;;;;5071388;28;20033;-73
2021/06/14 07:58:53;;;;;;;8.70;4.47;;;21.20;66.30;;;;;;5070065;28;20097;-74
2021/06/14 08:01:38;;;;;;;11.02;4.22;;;21.30;66.40;;;;;;5067761;28;20076;-71
2021/06/14 08:04:22;;;;;;;8.48;4.05;;;21.30;66.10;;;;;;5076555;28;20055;-73
2021/06/14 08:07:06;;;;;;;13.67;3.93;;;21.40;66.00;;;;;;5093385;28;20035;-74
2021/06/14 08:09:55;;;;;;;10.98;4.20;;;21.40;65.40;;;;;;5080489;28;20446;-74
2021/06/14 08:12:44;;;;;;;8.25;4.10;;;21.50;66.00;;;;;;5073234;28;20389;-74
2021/06/14 08:15:30;;;;;;;9.02;3.67;;;21.50;65.10;;;;;;5086768;28;20487;-74
2021/06/14 08:18:37;;;;;;;9.20;4.10;;;21.50;65.40;;;;;;5093511;28;20320;-74
2021/06/14 08:21:43;;;;;;;8.45;3.75;;;21.60;64.70;;;;;;5053398;28;20077;-74
2021/06/14 08:27:33;;;;;;;10.30;3.90;;;21.80;64.40;;;;;;5091073;28;20178;-74
2021/06/14 08:30:21;;;;;;;9.90;4.82;;;21.80;64.70;;;;;;5089397;28;20046;-73
2021/06/14 08:33:05;;;;;;;9.80;3.42;;;21.90;63.80;;;;;;5086954;28;20038;-73
2021/06/14 08:35:50;;;;;;;6.72;3.20;;;22.00;63.30;;;;;;5087748;28;20358;-73
2021/06/14 08:38:33;;;;;;;7.45;4.03;;;22.00;62.70;;;;;;5090675;28;20093;-73
2021/06/14 08:41:19;;;;;;;9.55;4.03;;;22.00;61.90;;;;;;5052842;28;20136;-73
2021/06/14 08:44:04;;;;;;;9.68;3.90;;;22.00;62.50;;;;;;5056039;28;20075;-74
2021/06/14 08:46:52;;;;;;;6.88;3.42;;;22.00;62.50;;;;;;5072531;28;20388;-74
2021/06/14 08:49:38;;;;;;;7.45;3.70;;;22.10;63.10;;;;;;5079081;28;20038;-74
2021/06/14 08:52:22;;;;;;;8.65;3.17;;;22.10;63.30;;;;;;5092818;28;20031;-74
2021/06/14 08:55:09;;;;;;;7.70;4.00;;;22.20;62.90;;;;;;5089165;28;20047;-75
2021/06/14 08:57:53;;;;;;;5.85;3.35;;;22.20;62.30;;;;;;5092481;28;20027;-74
2021/06/14 09:00:37;;;;;;;6.53;3.23;;;22.30;62.30;;;;;;5071464;28;20094;-74
2021/06/14 09:03:23;;;;;;;;;;;22.40;61.90;;;;;;5052532;28;20075;-74
2021/06/14 09:06:07;;;;;;;;;;;22.50;62.60;;;;;;5052811;28;19931;-73
2021/06/14 09:09:10;;;;;;;5.28;3.50;;;22.50;62.70;;;;;;5054738;28;20291;-74
2021/06/14 09:11:55;;;;;;;6.80;3.60;;;22.60;62.50;;;;;;5090961;28;20085;-74
2021/06/14 09:14:41;;;;;;;9.43;4.10;;;22.70;62.20;;;;;;5080445;28;20035;-73
2021/06/14 09:17:26;;;;;;;7.03;3.95;;;22.70;60.60;;;;;;5072142;28;20503;-74
2021/06/14 09:20:15;;;;;;;6.18;3.45;;;22.80;61.20;;;;;;5069771;28;20043;-74
2021/06/14 09:23:07;;;;;;;6.78;3.28;;;22.80;59.80;;;;;;5071638;28;20124;-74
2021/06/14 09:25:52;;;;;;;7.20;3.42;;;22.90;60.40;;;;;;5070535;28;20460;-74
2021/06/14 09:28:47;;;;;;;7.00;3.53;;;23.00;60.80;;;;;;5071947;28;20081;-74
2021/06/14 09:31:52;;;;;;;7.50;3.35;;;23.00;60.60;;;;;;5051018;28;20390;-74
2021/06/14 09:34:39;;;;;;;9.85;3.70;;;23.10;60.30;;;;;;5067889;28;20043;-74
2021/06/14 09:37:23;;;;;;;8.30;3.47;;;23.20;60.10;;;;;;5092055;28;20039;-74
2021/06/14 09:40:08;;;;;;;6.43;3.40;;;23.30;59.80;;;;;;5076526;28;20173;-74
2021/06/14 09:42:52;;;;;;;6.85;3.55;;;23.30;58.30;;;;;;5071778;28;20070;-74
2021/06/14 09:45:41;;;;;;;7.25;3.72;;;23.30;58.30;;;;;;5086325;28;20109;-74
2021/06/14 09:48:27;;;;;;;8.77;4.00;;;23.40;58.90;;;;;;5090879;28;20391;-73
2021/06/14 09:51:11;;;;;;;7.82;4.20;;;23.50;59.00;;;;;;5051732;28;20504;-74
2021/06/14 09:53:56;;;;;;;9.30;3.50;;;23.60;59.00;;;;;;5056153;28;20032;-74
2021/06/14 09:56:40;;;;;;;9.65;3.78;;;23.60;58.30;;;;;;5075223;28;20078;-73
2021/06/14 09:59:26;;;;;;;11.52;3.42;;;23.70;58.80;;;;;;5070610;28;20121;-74
2021/06/14 10:02:17;;;;;;;9.25;3.80;;;23.70;59.00;;;;;;5058803;28;20687;-73
2021/06/14 10:05:12;;;;;;;8.50;3.83;;;23.90;58.30;;;;;;5062653;28;20070;-73
2021/06/14 10:07:56;;;;;;;4.90;3.10;;;23.90;58.50;;;;;;5075901;28;20035;-73
2021/06/14 10:10:40;;;;;;;6.68;3.42;;;24.00;57.20;;;;;;5096650;28;20425;-72
2021/06/14 10:13:29;;;;;;;5.85;2.72;;;24.00;55.60;;;;;;5093863;28;20064;-74
2021/06/14 10:16:15;;;;;;;5.35;3.25;;;24.00;55.20;;;;;;5052479;28;20036;-74
2021/06/14 10:18:59;;;;;;;8.43;3.53;;;24.10;54.50;;;;;;5068071;28;20035;-73
2021/06/14 10:21:48;;;;;;;5.60;2.97;;;24.10;53.80;;;;;;5091742;28;20035;-73
2021/06/14 10:24:32;;;;;;;6.32;2.88;;;24.20;54.90;;;;;;5080949;28;20051;-73
2021/06/14 10:27:16;;;;;;;5.35;2.85;;;24.20;54.90;;;;;;5077653;28;20392;-74
2021/06/14 10:30:01;;;;;;;6.30;3.58;;;24.20;54.30;;;;;;5073756;28;20090;-73
2021/06/14 10:32:46;;;;;;;5.97;2.90;;;24.30;53.70;;;;;;5075593;28;20116;-72
2021/06/14 10:35:31;;;;;;;6.85;3.10;;;24.30;52.70;;;;;;5089670;28;20038;-73
2021/06/14 10:38:18;;;;;;;5.53;2.90;;;24.20;51.90;;;;;;5092418;28;20113;-73
2021/06/14 10:41:02;;;;;;;5.43;2.60;;;24.20;53.60;;;;;;5094407;28;20394;-72
2021/06/14 10:43:47;;;;;;;5.35;2.97;;;24.20;51.90;;;;;;5092921;28;20043;-72
2021/06/14 10:46:33;;;;;;;5.55;3.10;;;24.30;51.80;;;;;;5095854;28;20395;-73
2021/06/14 10:49:18;;;;;;;5.60;2.97;;;24.30;52.60;;;;;;5089003;28;20561;-72
2021/06/14 10:52:04;;;;;;;7.22;3.25;;;24.40;52.10;;;;;;5073922;28;20032;-74
2021/06/14 10:54:49;;;;;;;7.38;3.33;;;24.50;52.40;;;;;;5079195;28;20031;-73
2021/06/14 10:57:33;;;;;;;4.93;3.00;;;24.60;52.40;;;;;;5095327;28;20059;-73
2021/06/14 11:00:34;;;;;;;7.00;3.17;;;24.70;52.20;;;;;;5092077;28;20491;-72
2021/06/14 11:03:18;;;;;;;5.13;2.80;;;24.70;51.50;;;;;;5059343;28;20051;-73
2021/06/14 11:06:14;;;;;;;6.40;2.60;;;24.80;51.80;;;;;;5080279;28;20102;-72
2021/06/14 11:09:06;;;;;;;7.60;3.03;;;24.80;50.10;;;;;;5075722;28;20136;-72
2021/06/14 11:11:56;;;;;;;6.45;2.67;;;24.80;50.80;;;;;;5095258;28;20127;-72
2021/06/14 11:14:45;;;;;;;6.80;3.20;;;24.80;50.90;;;;;;5091708;28;20039;-73
2021/06/14 11:17:35;;;;;;;5.78;2.72;;;24.90;51.10;;;;;;5094896;28;20067;-72
2021/06/14 11:20:21;;;;;;;4.25;2.65;;;24.90;49.90;;;;;;5089071;28;20035;-73
2021/06/14 11:23:05;;;;;;;7.90;2.80;;;25.00;49.90;;;;;;5074341;28;20066;-72
2021/06/14 11:25:51;;;;;;;6.43;2.60;;;25.00;49.60;;;;;;5091551;28;20096;-72
2021/06/14 11:28:38;;;;;;;5.13;2.67;;;25.10;49.70;;;;;;5092250;28;20112;-73
2021/06/14 11:31:30;;;;;;;5.43;3.00;;;25.20;49.80;;;;;;5053092;28;20175;-72
2021/06/14 11:34:19;;;;;;;6.05;2.40;;;25.30;50.00;;;;;;5059057;28;20059;-72
2021/06/14 11:37:04;;;;;;;6.35;2.95;;;25.30;49.70;;;;;;5073378;28;20090;-73
2021/06/14 11:39:58;;;;;;;5.80;2.83;;;25.30;49.40;;;;;;5076835;28;20170;-73
2021/06/14 11:42:48;;;;;;;7.13;2.42;;;25.40;49.40;;;;;;5053958;28;20040;-73
2021/06/14 11:45:38;;;;;;;5.22;2.72;;;25.50;48.70;;;;;;5084783;28;20051;-73
2021/06/14 11:48:29;;;;;;;6.40;2.90;;;25.50;48.70;;;;;;5092852;28;20035;-73
2021/06/14 11:51:18;;;;;;;5.75;2.72;;;25.50;48.60;;;;;;5072062;28;20090;-73
2021/06/14 11:54:04;;;;;;;5.60;2.92;;;25.60;48.60;;;;;;5072314;28;20090;-72
2021/06/14 11:57:00;;;;;;;7.60;2.85;;;25.50;48.00;;;;;;5072728;28;20055;-72
2021/06/14 11:59:31;;;;;;;6.22;2.65;;;25.60;48.40;;;;;;5066268;28;20062;-73
2021/06/14 12:02:22;;;;;;;11.30;3.03;;;25.60;48.30;;;;;;5080988;28;20134;-73
2021/06/14 12:05:08;;;;;;;5.25;2.40;;;25.70;48.10;;;;;;5071432;28;20064;-72
2021/06/14 12:07:52;;;;;;;3.08;2.20;;;25.70;47.90;;;;;;5072136;28;20028;-73
2021/06/14 12:10:36;;;;;;;4.28;2.33;;;25.80;48.10;;;;;;5083145;28;20101;-72
2021/06/14 12:13:21;;;;;;;;;;;25.80;47.70;;;;;;5090316;28;20038;-73
2021/06/14 12:16:06;;;;;;;5.85;2.45;;;25.90;48.60;;;;;;5091406;28;19999;-72
2021/06/14 12:18:57;;;;;;;;;;;25.90;48.00;;;;;;5071956;28;20409;-72
2021/06/14 12:21:41;;;;;;;5.13;2.45;;;26.00;48.30;;;;;;5072272;28;19931;-73
2021/06/14 12:24:26;;;;;;;4.47;2.38;;;26.00;47.80;;;;;;5078747;28;20051;-73
2021/06/14 12:27:10;;;;;;;3.88;2.17;;;26.00;47.70;;;;;;5070643;28;20086;-72
2021/06/14 12:29:55;;;;;;;;;;;26.10;47.70;;;;;;5081917;28;20071;-72
2021/06/14 12:32:39;;;;;;;4.15;2.47;;;26.20;48.40;;;;;;5102897;28;19915;-72
2021/06/14 12:35:25;;;;;;;4.68;2.53;;;26.30;47.20;;;;;;5095586;28;20396;-73
2021/06/14 12:38:10;;;;;;;7.43;2.83;;;26.30;46.00;;;;;;5093397;28;20022;-72
2021/06/14 12:40:56;;;;;;;4.10;2.42;;;26.40;46.40;;;;;;5073540;28;20058;-72
2021/06/14 12:43:40;;;;;;;6.43;2.78;;;26.50;46.40;;;;;;5085038;28;20086;-72
2021/06/14 12:46:35;;;;;;;6.25;3.22;;;26.60;46.40;;;;;;5087998;28;20039;-73
2021/06/14 12:49:24;;;;;;;5.57;2.75;;;26.80;46.70;;;;;;5079910;28;20089;-72
2021/06/14 12:52:19;;;;;;;6.13;3.08;;;26.90;46.50;;;;;;5108897;28;20036;-72
2021/06/14 12:55:03;;;;;;;4.95;2.70;;;27.00;46.40;;;;;;5104150;28;20043;-72
2021/06/14 12:57:49;;;;;;;6.22;2.85;;;27.10;45.70;;;;;;5108519;28;20396;-72
2021/06/14 13:00:35;;;;;;;4.78;2.92;;;27.20;45.70;;;;;;5078352;28;20070;-72
2021/06/14 13:03:25;;;;;;;9.73;3.22;;;27.40;45.90;;;;;;5072185;28;20039;-72
2021/06/14 13:06:09;;;;;;;6.65;2.42;;;27.50;45.90;;;;;;5082283;28;20118;-72
2021/06/14 13:08:59;;;;;;;5.13;2.65;;;27.60;45.00;;;;;;5086974;28;20086;-72
2021/06/14 13:11:48;;;;;;;7.72;2.97;;;27.70;45.00;;;;;;5072236;28;20165;-72
2021/06/14 13:14:33;;;;;;;4.28;2.42;;;27.80;45.10;;;;;;5069991;28;20460;-72
2021/06/14 13:17:27;;;;;;;7.15;2.47;;;27.90;45.40;;;;;;5071155;28;20086;-73
2021/06/14 13:20:17;;;;;;;;;;;28.00;45.10;;;;;;5083516;28;20563;-72
2021/06/14 13:23:18;;;;;;;9.20;3.10;;;28.10;45.70;;;;;;5092176;28;20003;-72
2021/06/14 13:26:03;;;;;;;5.13;2.70;;;28.20;45.10;;;;;;5079087;28;20442;-72
2021/06/14 13:28:49;;;;;;;8.18;3.05;;;28.30;44.70;;;;;;5069118;28;20648;-72
2021/06/14 13:31:33;;;;;;;5.47;2.85;;;28.40;45.00;;;;;;5071909;28;20074;-72
2021/06/14 13:34:26;;;;;;;4.78;2.92;;;28.60;44.40;;;;;;5075428;28;20043;-72
2021/06/14 13:37:10;;;;;;;5.10;2.25;;;28.70;43.20;;;;;;5091950;28;20054;-72
2021/06/14 13:39:55;;;;;;;7.47;2.40;;;28.70;42.40;;;;;;5088916;28;20057;-71
2021/06/14 13:42:48;;;;;;;5.13;2.40;;;28.70;42.70;;;;;;5091706;28;20039;-72
2021/06/14 13:45:43;;;;;;;6.40;2.38;;;28.80;43.10;;;;;;5071801;28;20098;-72
2021/06/14 13:48:27;;;;;;;4.43;2.70;;;28.90;43.10;;;;;;5065814;28;20063;-72
2021/06/14 13:51:17;;;;;;;4.70;2.53;;;29.00;43.60;;;;;;5068241;28;20039;-72
2021/06/14 13:54:02;;;;;;;4.13;2.05;;;29.10;42.70;;;;;;5062347;28;20059;-72
2021/06/14 13:56:47;;;;;;;4.40;2.45;;;29.10;42.10;;;;;;5070294;28;20035;-72
2021/06/14 13:59:29;;;;;;;4.00;2.10;;;29.20;41.60;;;;;;5074631;28;20077;-72
2021/06/14 14:02:21;;;;;;;4.78;2.45;;;29.30;42.20;;;;;;5051501;28;20039;-73
2021/06/14 14:05:08;;;;;;;4.68;2.60;;;29.40;41.90;;;;;;5081214;28;20201;-73
2021/06/14 14:07:52;;;;;;;6.53;2.35;;;29.50;42.20;;;;;;5055209;28;20031;-74
2021/06/14 14:10:38;;;;;;;4.78;2.45;;;29.60;41.70;;;;;;5068038;28;20040;-73
2021/06/14 14:13:23;;;;;;;5.65;2.60;;;29.70;41.70;;;;;;5061087;28;20040;-73
2021/06/14 14:16:07;;;;;;;4.40;2.47;;;29.80;41.70;;;;;;5060846;28;20115;-73
2021/06/14 14:18:51;;;;;;;4.88;2.47;;;29.90;42.10;;;;;;5059038;28;20092;-72
2021/06/14 14:21:38;;;;;;;4.32;2.15;;;29.90;41.20;;;;;;5089521;28;20031;-72